MiSS Sylvia — WDE5412 — position and weather

sailwx.info

Track history (hours):
 
Tides and Currents Weather Stations Pressure Air Temp Water Temp Dewpoint Dewpoint Depression Visibility Wind Speed Wind Dir Waves Ship Positions

MiSS Sylvia

Owner: DOUBLE J MARINE, LLC, LAPLACE, LA. More information available from US FCC via Universal Licensing System and Coast Guard Vessel Documentation Center.

Last reported at 2014-Dec-19 11:30 UTC. Time now 2014-Dec-19 12:13 UTC.
Position N 29°56' W 090°08'.

Length 20 m; draft 2.7 m.

Type: Towing. MMSI: 367366340.

Date/timePositionNaut miles runAvg speedWind from/ knotsBaromVisibWave heightAir tempDewpointWater temp
2014-Dec-19 11:30N 29°56' W 090°08'4 4.0
2014-Dec-19 10:33N 29°55' W 090°04'3 3.4
2014-Dec-19 09:32N 29°56' W 090°00'5 4.6
2014-Dec-19 08:22N 29°54' W 089°55'10 0.8
2014-Dec-18 19:25N 29°55' W 090°06'21 2.6
2014-Dec-18 11:18N 30°03' W 090°29'0 0.0
2014-Dec-18 09:24N 30°03' W 090°29'19 0.6
2014-Dec-17 00:27N 29°55' W 090°08'3 3.8
2014-Dec-16 23:33N 29°55' W 090°04'3 3.0
2014-Dec-16 22:33N 29°57' W 090°01'4 3.6
2014-Dec-16 21:33N 29°55' W 089°58'4 0.2
2014-Dec-15 22:26N 29°57' W 090°02'4 3.8
2014-Dec-15 21:24N 29°55' W 090°05'22 1.5
2014-Dec-15 06:27N 30°03' W 090°29'1 0.8
2014-Dec-15 05:33N 30°03' W 090°29'0 0.2
2014-Dec-15 04:27N 30°03' W 090°28'0 0.3
2014-Dec-15 03:32N 30°03' W 090°29'4 0.2
2014-Dec-14 08:04N 29°60' W 090°27'3 1.9
2014-Dec-14 06:28N 30°02' W 090°28'18 1.0
2014-Dec-13 13:12N 29°57' W 090°09'10 0.4
2014-Dec-12 13:09N 29°55' W 089°58'4 6.4
2014-Dec-12 12:33N 29°57' W 090°01'5 4.7
2014-Dec-12 11:32N 29°55' W 090°06'11 3.3
2014-Dec-12 08:17N 29°57' W 090°18'2 0.8
2014-Dec-12 06:08N 29°56' W 090°20'1 1.2
2014-Dec-12 05:20N 29°56' W 090°21'4 4.8
2014-Dec-12 04:31N 29°59' W 090°24'6 0.4
2014-Dec-11 13:26N 30°03' W 090°29'1 0.2
2014-Dec-11 10:04N 30°03' W 090°28'1 2.2
2014-Dec-11 09:33N 30°02' W 090°28'6 5.2
2014-Dec-11 08:23N 29°57' W 090°23'5 5.6
2014-Dec-11 07:30N 29°57' W 090°18'5 5.3
2014-Dec-11 06:30N 29°55' W 090°12'6 4.5
2014-Dec-11 05:17N 29°55' W 090°06'4 5.3
2014-Dec-11 04:32N 29°57' W 090°02'0 0.0
2014-Dec-10 20:21N 29°57' W 090°02'4 5.1
2014-Dec-10 19:31N 29°55' W 090°06'4 4.5
2014-Dec-10 18:34N 29°56' W 090°10'8 0.3
2014-Dec-09 19:29N 29°57' W 090°01'5 5.0
2014-Dec-09 18:26N 29°55' W 090°07'  
Track history (hours):
 
Tides and Currents Weather Stations Pressure Air Temp Water Temp Dewpoint Dewpoint Depression Visibility Wind Speed Wind Dir Waves Ship Positions

MiSS Sylvia

Owner: DOUBLE J MARINE, LLC, LAPLACE, LA. More information available from US FCC via Universal Licensing System and Coast Guard Vessel Documentation Center.

Last reported at 2014-Dec-19 11:30 UTC. Time now 2014-Dec-19 12:13 UTC.
Position N 29°56' W 090°08'.

Length 20 m; draft 2.7 m.

Type: Towing. MMSI: 367366340.

Date/timePositionNaut miles runAvg speedWind from/ knotsBaromVisibWave heightAir tempDewpointWater temp
2014-Dec-19 11:30N 29°56' W 090°08'4 4.0
2014-Dec-19 10:33N 29°55' W 090°04'3 3.4
2014-Dec-19 09:32N 29°56' W 090°00'5 4.6
2014-Dec-19 08:22N 29°54' W 089°55'10 0.8
2014-Dec-18 19:25N 29°55' W 090°06'21 2.6
2014-Dec-18 11:18N 30°03' W 090°29'0 0.0
2014-Dec-18 09:24N 30°03' W 090°29'19 0.6
2014-Dec-17 00:27N 29°55' W 090°08'3 3.8
2014-Dec-16 23:33N 29°55' W 090°04'3 3.0
2014-Dec-16 22:33N 29°57' W 090°01'4 3.6
2014-Dec-16 21:33N 29°55' W 089°58'4 0.2
2014-Dec-15 22:26N 29°57' W 090°02'4 3.8
2014-Dec-15 21:24N 29°55' W 090°05'22 1.5
2014-Dec-15 06:27N 30°03' W 090°29'1 0.8
2014-Dec-15 05:33N 30°03' W 090°29'0 0.2
2014-Dec-15 04:27N 30°03' W 090°28'0 0.3
2014-Dec-15 03:32N 30°03' W 090°29'4 0.2
2014-Dec-14 08:04N 29°60' W 090°27'3 1.9
2014-Dec-14 06:28N 30°02' W 090°28'18 1.0
2014-Dec-13 13:12N 29°57' W 090°09'10 0.4
2014-Dec-12 13:09N 29°55' W 089°58'4 6.4
2014-Dec-12 12:33N 29°57' W 090°01'5 4.7
2014-Dec-12 11:32N 29°55' W 090°06'11 3.3
2014-Dec-12 08:17N 29°57' W 090°18'2 0.8
2014-Dec-12 06:08N 29°56' W 090°20'1 1.2
2014-Dec-12 05:20N 29°56' W 090°21'4 4.8
2014-Dec-12 04:31N 29°59' W 090°24'6 0.4
2014-Dec-11 13:26N 30°03' W 090°29'1 0.2
2014-Dec-11 10:04N 30°03' W 090°28'1 2.2
2014-Dec-11 09:33N 30°02' W 090°28'6 5.2
2014-Dec-11 08:23N 29°57' W 090°23'5 5.6
2014-Dec-11 07:30N 29°57' W 090°18'5 5.3
2014-Dec-11 06:30N 29°55' W 090°12'6 4.5
2014-Dec-11 05:17N 29°55' W 090°06'4 5.3
2014-Dec-11 04:32N 29°57' W 090°02'0 0.0
2014-Dec-10 20:21N 29°57' W 090°02'4 5.1
2014-Dec-10 19:31N 29°55' W 090°06'4 4.5
2014-Dec-10 18:34N 29°56' W 090°10'8 0.3
2014-Dec-09 19:29N 29°57' W 090°01'5 5.0
2014-Dec-09 18:26N 29°55' W 090°07'  

Dump ship's entire track history